createdAt,value
2022-09-03T00:02:16.023Z,94.10
2022-09-03T00:05:10.059Z,94.20
2022-09-03T00:08:05.390Z,94.20
2022-09-03T00:10:58.696Z,94.50
2022-09-03T00:13:52.207Z,94.70
2022-09-03T00:16:46.381Z,94.50
2022-09-03T00:19:38.247Z,94.60
2022-09-03T00:22:33.019Z,94.50
2022-09-03T00:25:27.788Z,94.60
2022-09-03T00:28:20.444Z,94.60
2022-09-03T00:31:15.011Z,94.60
2022-09-03T00:34:06.997Z,94.50
2022-09-03T00:36:55.352Z,95.00
2022-09-03T00:39:45.103Z,94.70
2022-09-03T00:42:43.507Z,94.70
2022-09-03T00:45:39.712Z,94.90
2022-09-03T00:48:31.787Z,95.20
2022-09-03T00:51:28.332Z,95.10
2022-09-03T00:54:25.485Z,94.90
2022-09-03T00:57:25.698Z,95.00
2022-09-03T01:00:16.596Z,95.40
2022-09-03T01:03:10.206Z,95.20
2022-09-03T01:06:09.140Z,95.20
2022-09-03T01:09:12.030Z,95.30
2022-09-03T01:12:13.479Z,95.60
2022-09-03T01:15:11.319Z,95.60
2022-09-03T01:18:12.047Z,95.50
2022-09-03T01:21:19.180Z,95.80
2022-09-03T01:24:35.155Z,96.10
2022-09-03T01:27:37.883Z,96.20
2022-09-03T01:30:27.809Z,96.10
2022-09-03T01:33:26.473Z,96.10
2022-09-03T01:36:24.914Z,96.00
2022-09-03T01:39:19.230Z,96.40
2022-09-03T01:42:20.762Z,96.30
2022-09-03T01:45:30.872Z,96.60
2022-09-03T01:48:41.299Z,96.50
2022-09-03T01:51:31.739Z,96.80
2022-09-03T01:54:36.950Z,96.70
2022-09-03T01:57:40.103Z,96.70
2022-09-03T02:00:35.578Z,96.70
2022-09-03T02:03:25.278Z,96.90
2022-09-03T02:06:13.769Z,97.00
2022-09-03T02:09:01.909Z,97.30
2022-09-03T02:11:55.733Z,97.40
2022-09-03T02:14:44.253Z,97.60
2022-09-03T02:17:34.593Z,97.80
2022-09-03T02:20:25.147Z,97.70
2022-09-03T02:23:13.305Z,97.60
2022-09-03T02:26:04.197Z,97.70
2022-09-03T02:28:53.941Z,97.80
2022-09-03T02:31:42.291Z,97.90
2022-09-03T02:34:32.299Z,98.00
2022-09-03T02:37:21.360Z,98.10
2022-09-03T02:40:11.043Z,98.10
2022-09-03T02:43:00.067Z,98.30
2022-09-03T02:45:50.141Z,98.50
2022-09-03T02:48:38.344Z,98.60
2022-09-03T02:51:27.851Z,98.70
2022-09-03T02:54:20.725Z,99.00
2022-09-03T02:57:10.588Z,99.00
2022-09-03T02:59:58.864Z,99.20
2022-09-03T03:02:47.325Z,99.20
2022-09-03T03:05:44.751Z,99.60
2022-09-03T03:08:35.216Z,99.40
2022-09-03T03:11:25.159Z,99.70
2022-09-03T03:14:13.324Z,99.50
2022-09-03T03:17:01.555Z,99.70
2022-09-03T03:19:50.024Z,99.70
2022-09-03T03:22:38.285Z,99.90
2022-09-03T03:25:27.847Z,99.90
2022-09-03T03:28:16.247Z,99.90
2022-09-03T03:31:08.610Z,99.90
2022-09-03T03:33:58.147Z,99.90
2022-09-03T03:36:46.293Z,99.90
2022-09-03T03:39:36.028Z,99.90
2022-09-03T03:42:25.927Z,99.90
2022-09-03T03:45:14.057Z,99.90
2022-09-03T03:48:02.229Z,99.90
2022-09-03T03:50:50.597Z,99.90
2022-09-03T03:53:41.395Z,99.90
2022-09-03T03:56:29.590Z,99.90
2022-09-03T03:59:19.085Z,99.90
2022-09-03T04:02:07.308Z,99.90
2022-09-03T04:04:55.500Z,99.90
2022-09-03T04:07:44.441Z,99.90
2022-09-03T04:10:32.682Z,99.90
2022-09-03T04:13:21.047Z,99.90
2022-09-03T04:16:12.082Z,99.90
2022-09-03T04:19:01.656Z,99.90
2022-09-03T04:21:49.851Z,99.90
2022-09-03T04:24:39.031Z,99.90
2022-09-03T04:27:27.208Z,99.90
2022-09-03T04:30:15.489Z,99.90
2022-09-03T04:33:05.554Z,99.90
2022-09-03T04:35:53.688Z,99.90
2022-09-03T04:38:43.353Z,99.90
2022-09-03T04:41:32.677Z,99.90
2022-09-03T04:44:20.843Z,99.90
2022-09-03T04:47:09.293Z,99.90
2022-09-03T04:49:59.024Z,99.90
2022-09-03T04:52:47.241Z,99.90
2022-09-03T04:55:36.063Z,99.90
2022-09-03T04:58:24.355Z,99.90
2022-09-03T05:01:16.598Z,99.90
2022-09-03T05:04:05.910Z,99.90
2022-09-03T05:06:55.474Z,99.90
2022-09-03T05:09:43.604Z,99.90
2022-09-03T05:12:31.766Z,99.90
2022-09-03T05:15:19.870Z,99.90
2022-09-03T05:18:08.026Z,99.90
2022-09-03T05:21:00.817Z,99.90
2022-09-03T05:23:51.571Z,99.90
2022-09-03T05:26:40.562Z,99.90
2022-09-03T05:29:28.725Z,99.90
2022-09-03T05:32:17.392Z,99.90
2022-09-03T05:35:06.587Z,99.90
2022-09-03T05:37:57.081Z,99.90
2022-09-03T05:40:46.575Z,99.90
2022-09-03T05:43:35.846Z,99.90
2022-09-03T05:46:26.771Z,99.90
2022-09-03T05:49:14.924Z,99.90
2022-09-03T05:52:03.497Z,99.90
2022-09-03T05:54:51.668Z,99.90
2022-09-03T05:57:41.217Z,99.90
2022-09-03T06:00:29.369Z,99.90
2022-09-03T06:03:17.640Z,99.90
2022-09-03T06:06:07.212Z,99.90
2022-09-03T06:08:58.124Z,99.90
2022-09-03T06:11:47.626Z,99.90
2022-09-03T06:14:39.619Z,99.90
2022-09-03T06:17:27.749Z,99.90
2022-09-03T06:20:16.130Z,99.90
2022-09-03T06:23:04.329Z,99.90
2022-09-03T06:26:05.055Z,99.90
2022-09-03T06:28:55.069Z,99.90
2022-09-03T06:31:44.829Z,99.90
2022-09-03T06:34:33.195Z,99.90
2022-09-03T06:37:21.368Z,99.90
2022-09-03T06:40:13.064Z,99.90
2022-09-03T06:43:01.991Z,99.90
2022-09-03T06:45:57.675Z,99.90
2022-09-03T06:48:47.823Z,99.90
2022-09-03T06:51:37.838Z,99.90
2022-09-03T06:54:26.011Z,99.90
2022-09-03T06:57:14.188Z,99.90
2022-09-03T07:00:04.588Z,99.90
2022-09-03T07:02:58.534Z,99.90
2022-09-03T07:05:48.799Z,99.90
2022-09-03T07:08:37.526Z,99.90
2022-09-03T07:11:29.170Z,99.90
2022-09-03T07:14:19.221Z,99.90
2022-09-03T07:17:07.441Z,99.90
2022-09-03T07:19:55.690Z,99.90
2022-09-03T07:22:45.170Z,99.90
2022-09-03T07:25:33.323Z,99.90
2022-09-03T07:28:21.642Z,99.90
2022-09-03T07:31:12.689Z,99.90
2022-09-03T07:34:05.583Z,99.90
2022-09-03T07:36:54.016Z,99.90
2022-09-03T07:39:43.941Z,99.90
2022-09-03T07:42:32.597Z,99.90
2022-09-03T07:45:20.927Z,99.90
2022-09-03T07:48:09.088Z,99.90
2022-09-03T07:51:01.005Z,99.90
2022-09-03T07:53:50.050Z,99.90
2022-09-03T07:56:41.312Z,99.90
2022-09-03T07:59:29.452Z,99.90
2022-09-03T08:02:17.640Z,99.90
2022-09-03T08:05:07.399Z,99.90
2022-09-03T08:07:55.559Z,99.90
2022-09-03T08:10:43.726Z,99.90
2022-09-03T08:13:33.968Z,99.90
2022-09-03T08:16:22.237Z,99.90
2022-09-03T08:19:11.332Z,99.90
2022-09-03T08:21:59.628Z,99.90
2022-09-03T08:24:48.336Z,99.90
2022-09-03T08:27:36.663Z,99.90
2022-09-03T08:30:27.527Z,99.90
2022-09-03T08:33:15.676Z,99.90
2022-09-03T08:36:06.045Z,99.90
2022-09-03T08:38:55.835Z,99.90
2022-09-03T08:42:03.306Z,99.90
2022-09-03T08:44:56.138Z,99.90
2022-09-03T08:47:51.900Z,99.90
2022-09-03T08:50:42.345Z,99.90
2022-09-03T08:53:37.675Z,99.90
2022-09-03T08:56:29.942Z,99.90
2022-09-03T08:59:18.108Z,99.90
2022-09-03T09:02:19.669Z,99.80
2022-09-03T09:05:14.568Z,99.80
2022-09-03T09:08:10.541Z,99.70
2022-09-03T09:11:07.650Z,98.90
2022-09-03T09:14:03.480Z,98.50
2022-09-03T09:17:02.078Z,99.30
2022-09-03T09:19:59.847Z,98.20
2022-09-03T09:22:53.454Z,98.30
2022-09-03T09:25:48.281Z,97.20
2022-09-03T09:28:37.889Z,97.60
2022-09-03T09:31:26.285Z,95.90
2022-09-03T09:34:15.333Z,96.10
2022-09-03T09:37:06.455Z,96.10
2022-09-03T09:40:01.139Z,95.10
2022-09-03T09:42:49.434Z,95.40
2022-09-03T09:45:40.785Z,95.60
2022-09-03T09:48:32.669Z,94.20
2022-09-03T09:51:23.406Z,94.10
2022-09-03T09:54:14.134Z,93.00
2022-09-03T09:57:06.277Z,92.70
2022-09-03T10:00:06.745Z,93.10
2022-09-03T10:02:55.719Z,93.00
2022-09-03T10:06:25.728Z,92.10
2022-09-03T10:09:16.856Z,92.00
2022-09-03T10:12:15.224Z,90.30
2022-09-03T10:15:16.769Z,90.20
2022-09-03T10:18:12.354Z,90.00
2022-09-03T10:21:05.156Z,85.60
2022-09-03T10:24:01.708Z,88.20
2022-09-03T10:26:53.285Z,87.10
2022-09-03T10:29:42.935Z,86.90
2022-09-03T10:32:42.791Z,87.50
2022-09-03T10:35:37.814Z,86.00
2022-09-03T10:38:30.426Z,85.30
2022-09-03T10:41:31.518Z,86.50
2022-09-03T10:44:40.143Z,84.80
2022-09-03T10:47:53.034Z,84.30
2022-09-03T10:50:48.619Z,84.60
2022-09-03T10:53:57.699Z,83.20
2022-09-03T10:56:55.813Z,84.50
2022-09-03T11:00:04.068Z,83.10
2022-09-03T11:03:30.906Z,84.30
2022-09-03T11:06:24.836Z,83.40
2022-09-03T11:09:19.614Z,83.00
2022-09-03T11:12:12.927Z,84.70
2022-09-03T11:15:05.901Z,84.40
2022-09-03T11:17:59.598Z,82.30
2022-09-03T11:20:50.658Z,80.40
2022-09-03T11:23:44.612Z,81.70
2022-09-03T11:26:35.231Z,80.80
2022-09-03T11:29:31.014Z,80.00
2022-09-03T11:32:23.200Z,79.90
2022-09-03T11:35:16.553Z,78.90
2022-09-03T11:38:07.386Z,78.30
2022-09-03T11:41:04.416Z,78.60
2022-09-03T11:43:53.149Z,79.30
2022-09-03T11:46:42.255Z,80.10
2022-09-03T11:49:33.586Z,78.80
2022-09-03T11:52:33.676Z,79.20
2022-09-03T11:55:38.211Z,78.40
2022-09-03T11:58:35.309Z,77.40
2022-09-03T12:01:24.644Z,77.40
2022-09-03T12:04:18.183Z,76.70
2022-09-03T12:07:31.030Z,77.90
2022-09-03T12:10:35.926Z,75.50
2022-09-03T12:13:38.323Z,77.20
2022-09-03T12:16:45.058Z,75.70
2022-09-03T12:19:42.161Z,75.80
2022-09-03T12:22:31.480Z,76.60
2022-09-03T12:25:19.798Z,75.10
2022-09-03T12:28:13.947Z,75.30
2022-09-03T12:31:14.491Z,76.40
2022-09-03T12:34:04.346Z,77.10
2022-09-03T12:36:55.093Z,73.70
2022-09-03T12:40:08.742Z,74.60
2022-09-03T12:46:24.641Z,75.50
2022-09-03T12:49:30.521Z,74.30
2022-09-03T12:52:22.073Z,74.60
2022-09-03T12:55:27.113Z,74.50
2022-09-03T12:58:20.088Z,74.40
2022-09-03T13:01:13.171Z,74.30
2022-09-03T13:04:07.986Z,74.50
2022-09-03T13:07:03.975Z,74.50
2022-09-03T13:09:52.414Z,72.60
2022-09-03T13:12:51.148Z,72.50
2022-09-03T13:15:41.472Z,72.50
2022-09-03T13:18:40.116Z,73.10
2022-09-03T13:21:40.974Z,70.50
2022-09-03T13:24:50.657Z,73.00
2022-09-03T13:27:44.690Z,71.50
2022-09-03T13:30:39.227Z,72.00
2022-09-03T13:33:34.957Z,71.90
2022-09-03T13:36:27.342Z,70.80
2022-09-03T13:39:27.586Z,70.30
2022-09-03T13:42:18.728Z,69.90
2022-09-03T13:45:17.072Z,69.50
2022-09-03T13:48:30.738Z,69.90
2022-09-03T13:51:24.609Z,69.00
2022-09-03T13:54:31.155Z,69.00
2022-09-03T13:57:35.044Z,68.50
2022-09-03T14:00:31.238Z,69.20
2022-09-03T14:03:32.163Z,69.10
2022-09-03T14:06:32.048Z,70.30
2022-09-03T14:09:33.994Z,69.30
2022-09-03T14:12:35.272Z,69.60
2022-09-03T14:15:29.457Z,70.70
2022-09-03T14:18:32.223Z,69.70
2022-09-03T14:21:25.786Z,70.10
2022-09-03T14:24:18.184Z,70.40
2022-09-03T14:27:07.598Z,68.90
2022-09-03T14:30:02.652Z,68.50
2022-09-03T14:32:57.172Z,70.50
2022-09-03T14:36:13.468Z,70.60
2022-09-03T14:39:18.908Z,70.50
2022-09-03T14:42:24.930Z,70.90
2022-09-03T14:45:49.132Z,71.30
2022-09-03T14:48:54.475Z,72.40
2022-09-03T14:51:56.247Z,72.40
2022-09-03T14:55:07.429Z,72.70
2022-09-03T14:58:08.434Z,72.80
2022-09-03T15:01:02.684Z,71.30
2022-09-03T15:04:20.490Z,70.80
2022-09-03T15:07:30.920Z,70.60
2022-09-03T15:10:28.510Z,70.30
2022-09-03T15:13:20.496Z,70.40
2022-09-03T15:16:23.141Z,68.30
2022-09-03T15:19:27.612Z,68.70
2022-09-03T15:22:25.946Z,68.60
2022-09-03T15:25:22.947Z,68.30
2022-09-03T15:28:18.291Z,68.10
2022-09-03T15:31:17.345Z,67.50
2022-09-03T15:34:16.355Z,67.70
2022-09-03T15:37:14.640Z,67.90
2022-09-03T15:40:07.703Z,67.50
2022-09-03T15:43:00.942Z,67.30
2022-09-03T15:45:58.213Z,67.10
2022-09-03T15:48:51.535Z,67.10
2022-09-03T15:51:50.028Z,67.40
2022-09-03T15:54:47.808Z,68.10
2022-09-03T15:57:43.067Z,68.50
2022-09-03T16:00:32.957Z,68.40
2022-09-03T16:03:34.015Z,68.80
2022-09-03T16:06:38.351Z,69.80
2022-09-03T16:09:37.754Z,70.40
2022-09-03T16:12:37.041Z,70.70
2022-09-03T16:15:29.454Z,71.70
2022-09-03T16:18:30.154Z,71.60
2022-09-03T16:21:26.198Z,71.10
2022-09-03T16:24:19.624Z,70.70
2022-09-03T16:27:16.735Z,69.70
2022-09-03T16:30:12.477Z,69.60
2022-09-03T16:33:10.020Z,69.50
2022-09-03T16:36:09.337Z,69.20
2022-09-03T16:39:04.001Z,67.70
2022-09-03T16:42:00.702Z,67.10
2022-09-03T16:45:00.847Z,67.40
2022-09-03T16:48:05.338Z,67.00
2022-09-03T16:51:09.166Z,67.70
2022-09-03T16:54:16.417Z,66.90
2022-09-03T16:57:18.941Z,67.00
2022-09-03T17:00:12.325Z,67.10
2022-09-03T17:03:29.576Z,67.30
2022-09-03T17:07:01.278Z,67.80
2022-09-03T17:10:01.519Z,68.20
2022-09-03T17:12:55.394Z,69.10
2022-09-03T17:15:50.603Z,69.20
2022-09-03T17:18:51.635Z,69.70
2022-09-03T17:21:48.900Z,70.40
2022-09-03T17:24:42.553Z,72.00
2022-09-03T17:27:46.367Z,72.70
2022-09-03T17:30:41.356Z,73.10
2022-09-03T17:33:59.080Z,73.90
2022-09-03T17:36:59.957Z,74.10
2022-09-03T17:40:13.241Z,75.00
2022-09-03T17:43:13.478Z,75.40
2022-09-03T17:46:14.459Z,76.10
2022-09-03T17:49:08.200Z,77.10
2022-09-03T17:52:03.125Z,77.20
2022-09-03T17:54:55.362Z,78.00
2022-09-03T17:57:47.798Z,77.60
2022-09-03T18:00:40.901Z,77.90
2022-09-03T18:03:35.773Z,78.10
2022-09-03T18:06:37.880Z,78.70
2022-09-03T18:09:37.721Z,79.20
2022-09-03T18:12:34.889Z,79.40
2022-09-03T18:15:30.235Z,80.10
2022-09-03T18:18:27.073Z,80.60
2022-09-03T18:21:38.952Z,80.50
2022-09-03T18:24:51.896Z,80.50
2022-09-03T18:28:00.836Z,80.60
2022-09-03T18:31:06.611Z,80.50
2022-09-03T18:34:12.412Z,81.10
2022-09-03T18:37:18.346Z,81.20
2022-09-03T18:40:29.457Z,81.40
2022-09-03T18:43:42.700Z,81.40
2022-09-03T18:50:29.392Z,81.70
2022-09-03T18:53:44.707Z,82.00
2022-09-03T18:56:56.499Z,82.30
2022-09-03T19:00:15.856Z,82.50
2022-09-03T19:03:40.004Z,82.90
2022-09-03T19:06:56.603Z,82.80
2022-09-03T19:10:12.493Z,83.40
2022-09-03T19:13:35.216Z,83.40
2022-09-03T19:16:51.273Z,83.90
2022-09-03T19:20:08.734Z,84.50
2022-09-03T19:23:14.952Z,84.40
2022-09-03T19:26:28.065Z,84.40
2022-09-03T19:29:47.812Z,84.40
2022-09-03T19:33:06.785Z,85.50
2022-09-03T19:36:26.331Z,85.60
2022-09-03T19:39:47.815Z,85.40
2022-09-03T19:43:04.910Z,85.50
2022-09-03T19:46:23.157Z,85.40
2022-09-03T19:49:36.866Z,85.40
2022-09-03T19:52:48.939Z,85.70
2022-09-03T19:56:00.929Z,86.30
2022-09-03T19:59:14.637Z,85.90
2022-09-03T20:02:21.972Z,86.50
2022-09-03T20:05:32.554Z,86.40
2022-09-03T20:08:40.386Z,87.10
2022-09-03T20:11:31.326Z,87.10
2022-09-03T20:14:20.496Z,87.40
2022-09-03T20:17:19.256Z,87.50
2022-09-03T20:20:25.167Z,87.90
2022-09-03T20:23:21.324Z,87.70
2022-09-03T20:26:20.555Z,88.10
2022-09-03T20:29:33.048Z,88.70
2022-09-03T20:32:44.201Z,88.80
2022-09-03T20:35:43.216Z,88.90
2022-09-03T20:39:07.143Z,89.10
2022-09-03T20:42:02.891Z,89.30
2022-09-03T20:45:06.467Z,89.50
2022-09-03T20:48:10.915Z,89.20
2022-09-03T20:51:03.893Z,90.00
2022-09-03T20:54:08.852Z,89.50
2022-09-03T20:57:14.511Z,90.20
2022-09-03T21:00:09.269Z,90.00
2022-09-03T21:03:22.706Z,90.20
2022-09-03T21:06:21.925Z,90.30
2022-09-03T21:09:32.876Z,90.40
2022-09-03T21:12:26.492Z,90.60
2022-09-03T21:15:22.373Z,90.70
2022-09-03T21:18:17.652Z,90.50
2022-09-03T21:21:21.823Z,90.60
2022-09-03T21:24:15.721Z,91.10
2022-09-03T21:27:08.195Z,90.90
2022-09-03T21:30:02.912Z,91.10
2022-09-03T21:32:54.996Z,91.20
2022-09-03T21:35:48.112Z,91.10
2022-09-03T21:38:39.714Z,91.30
2022-09-03T21:41:32.253Z,91.50
2022-09-03T21:44:31.488Z,91.40
2022-09-03T21:47:22.185Z,91.80
2022-09-03T21:50:18.435Z,91.70
2022-09-03T21:53:12.324Z,92.10
2022-09-03T21:56:28.266Z,92.30
2022-09-03T21:59:29.287Z,92.20
2022-09-03T22:02:24.589Z,92.30
2022-09-03T22:05:13.799Z,92.30
2022-09-03T22:08:19.334Z,92.40
2022-09-03T22:11:13.613Z,92.50
2022-09-03T22:14:10.611Z,92.70
2022-09-03T22:17:05.170Z,92.70
2022-09-03T22:19:53.442Z,92.60
2022-09-03T22:22:44.875Z,92.80
2022-09-03T22:25:41.866Z,93.10
2022-09-03T22:28:37.043Z,93.00
2022-09-03T22:31:36.923Z,93.00
2022-09-03T22:34:45.546Z,93.00
2022-09-03T22:37:47.610Z,93.30
2022-09-03T22:40:42.515Z,93.40
2022-09-03T22:43:39.172Z,93.40
2022-09-03T22:46:33.299Z,93.40
2022-09-03T22:49:34.787Z,93.60
2022-09-03T22:52:39.487Z,94.10
2022-09-03T22:55:27.862Z,94.00
2022-09-03T22:58:20.785Z,93.90
2022-09-03T23:01:14.453Z,94.10
2022-09-03T23:04:11.373Z,94.20
2022-09-03T23:07:04.185Z,94.40
2022-09-03T23:09:58.287Z,94.40
2022-09-03T23:12:51.225Z,94.40
2022-09-03T23:15:41.820Z,94.60
2022-09-03T23:18:33.553Z,94.60
2022-09-03T23:21:28.135Z,95.10
2022-09-03T23:24:21.381Z,95.00
2022-09-03T23:27:16.219Z,95.20
2022-09-03T23:30:06.116Z,95.10
2022-09-03T23:32:58.478Z,95.20
2022-09-03T23:35:53.942Z,95.50
2022-09-03T23:38:55.987Z,95.60
2022-09-03T23:41:54.909Z,95.70
2022-09-03T23:44:57.387Z,95.80
2022-09-03T23:47:54.878Z,95.90
2022-09-03T23:50:52.797Z,95.80
2022-09-03T23:53:55.454Z,96.10
2022-09-03T23:57:15.354Z,96.20
